createdAt,value
2018-12-15T00:00:51.961Z,87.50
2018-12-15T00:03:26.614Z,87.20
2018-12-15T00:06:01.325Z,87.80
2018-12-15T00:08:35.952Z,88.10
2018-12-15T00:11:10.615Z,88.40
2018-12-15T00:13:45.282Z,89.20
2018-12-15T00:16:20.000Z,89.90
2018-12-15T00:18:54.736Z,90.10
2018-12-15T00:21:29.391Z,90.20
2018-12-15T00:24:04.066Z,90.10
2018-12-15T00:26:38.679Z,90.00
2018-12-15T00:29:13.447Z,90.10
2018-12-15T00:31:47.934Z,89.50
2018-12-15T00:34:22.880Z,90.10
2018-12-15T00:36:57.505Z,89.80
2018-12-15T00:39:32.189Z,90.30
2018-12-15T00:42:06.855Z,89.20
2018-12-15T00:44:41.480Z,88.70
2018-12-15T00:47:16.304Z,88.60
2018-12-15T00:49:51.033Z,89.20
2018-12-15T00:52:25.600Z,89.70
2018-12-15T00:55:00.248Z,89.20
2018-12-15T00:57:34.966Z,89.20
2018-12-15T01:00:10.068Z,90.10
2018-12-15T01:02:44.821Z,90.50
2018-12-15T01:05:19.444Z,90.30
2018-12-15T01:07:53.961Z,90.20
2018-12-15T01:10:28.703Z,90.10
2018-12-15T01:13:03.286Z,90.60
2018-12-15T01:15:43.599Z,90.80
2018-12-15T01:18:18.316Z,90.80
2018-12-15T01:20:53.052Z,91.00
2018-12-15T01:23:27.868Z,91.20
2018-12-15T01:26:02.533Z,90.70
2018-12-15T01:28:37.149Z,90.30
2018-12-15T01:31:11.744Z,90.20
2018-12-15T01:33:46.699Z,90.20
2018-12-15T01:36:21.331Z,89.30
2018-12-15T01:38:55.957Z,89.00
2018-12-15T01:41:30.775Z,88.80
2018-12-15T01:44:05.379Z,88.60
2018-12-15T01:46:40.169Z,88.60
2018-12-15T01:49:14.901Z,88.20
2018-12-15T01:51:49.594Z,88.10
2018-12-15T01:54:24.332Z,88.90
2018-12-15T01:56:59.125Z,89.00
2018-12-15T01:59:33.866Z,88.80
2018-12-15T02:02:09.183Z,88.80
2018-12-15T02:04:43.713Z,88.30
2018-12-15T02:07:18.432Z,88.20
2018-12-15T02:09:53.086Z,88.30
2018-12-15T02:12:27.573Z,88.40
2018-12-15T02:15:02.510Z,88.00
2018-12-15T02:17:37.158Z,87.80
2018-12-15T02:20:11.774Z,88.20
2018-12-15T02:22:46.581Z,87.90
2018-12-15T02:25:21.417Z,87.60
2018-12-15T02:27:56.182Z,87.70
2018-12-15T02:30:30.926Z,87.90
2018-12-15T02:33:05.599Z,88.10
2018-12-15T02:35:40.418Z,88.40
2018-12-15T02:38:15.672Z,88.50
2018-12-15T02:40:50.203Z,88.90
2018-12-15T02:43:24.846Z,88.40
2018-12-15T02:45:59.369Z,88.70
2018-12-15T02:48:33.877Z,88.70
2018-12-15T02:51:08.489Z,89.30
2018-12-15T02:53:43.434Z,89.60
2018-12-15T02:56:18.085Z,88.90
2018-12-15T02:58:52.683Z,88.40
2018-12-15T03:01:27.582Z,88.40
2018-12-15T03:04:02.249Z,88.40
2018-12-15T03:06:36.856Z,88.30
2018-12-15T03:09:11.651Z,88.10
2018-12-15T03:11:46.318Z,88.30
2018-12-15T03:14:21.052Z,87.70
2018-12-15T03:17:02.964Z,88.00
2018-12-15T03:19:37.802Z,87.90
2018-12-15T03:22:12.416Z,87.80
2018-12-15T03:24:47.151Z,88.00
2018-12-15T03:27:22.196Z,88.00
2018-12-15T03:29:57.200Z,88.20
2018-12-15T03:32:31.975Z,88.30
2018-12-15T03:35:06.896Z,88.40
2018-12-15T03:37:41.475Z,87.70
2018-12-15T03:40:16.036Z,88.90
2018-12-15T03:42:50.643Z,89.30
2018-12-15T03:45:25.843Z,90.10
2018-12-15T03:48:00.334Z,89.60
2018-12-15T03:50:34.884Z,90.00
2018-12-15T03:53:09.388Z,90.00
2018-12-15T03:55:44.018Z,90.00
2018-12-15T03:58:18.919Z,90.10
2018-12-15T04:00:53.551Z,89.60
2018-12-15T04:03:28.735Z,90.10
2018-12-15T04:06:03.473Z,89.60
2018-12-15T04:08:38.069Z,89.60
2018-12-15T04:11:12.839Z,90.10
2018-12-15T04:13:47.672Z,90.00
2018-12-15T04:16:22.781Z,90.10
2018-12-15T04:18:57.711Z,90.20
2018-12-15T04:21:32.393Z,90.10
2018-12-15T04:24:07.024Z,90.30
2018-12-15T04:26:41.725Z,90.30
2018-12-15T04:29:16.301Z,90.20
2018-12-15T04:31:51.497Z,89.80
2018-12-15T04:34:26.336Z,90.00
2018-12-15T04:37:00.848Z,89.90
2018-12-15T04:39:35.596Z,90.00
2018-12-15T04:42:10.236Z,90.20
2018-12-15T04:44:44.818Z,90.00
2018-12-15T04:47:19.524Z,88.70
2018-12-15T04:49:54.283Z,87.90
2018-12-15T04:52:28.906Z,87.60
2018-12-15T04:55:03.527Z,87.70
2018-12-15T04:57:38.421Z,88.40
2018-12-15T05:00:13.192Z,88.80
2018-12-15T05:02:47.842Z,88.10
2018-12-15T05:05:22.495Z,86.90
2018-12-15T05:07:57.272Z,87.20
2018-12-15T05:10:31.796Z,88.20
2018-12-15T05:13:06.421Z,88.50
2018-12-15T05:15:41.727Z,87.70
2018-12-15T05:18:18.324Z,87.30
2018-12-15T05:20:53.134Z,86.80
2018-12-15T05:23:27.882Z,87.00
2018-12-15T05:26:02.603Z,87.30
2018-12-15T05:28:37.216Z,87.30
2018-12-15T05:31:11.743Z,87.80
2018-12-15T05:33:46.501Z,87.70
2018-12-15T05:36:21.097Z,89.10
2018-12-15T05:38:55.725Z,88.50
2018-12-15T05:41:30.394Z,87.70
2018-12-15T05:44:04.984Z,88.30
2018-12-15T05:46:39.653Z,87.80
2018-12-15T05:49:14.160Z,86.50
2018-12-15T05:51:48.769Z,86.10
2018-12-15T05:54:23.389Z,86.10
2018-12-15T05:56:58.133Z,86.60
2018-12-15T05:59:32.744Z,86.70
2018-12-15T06:02:09.134Z,86.20
2018-12-15T06:04:43.744Z,85.80
2018-12-15T06:07:19.429Z,85.90
2018-12-15T06:09:54.128Z,86.10
2018-12-15T06:12:28.848Z,86.50
2018-12-15T06:15:03.377Z,87.30
2018-12-15T06:17:38.078Z,87.20
2018-12-15T06:20:12.891Z,87.30
2018-12-15T06:22:47.596Z,87.40
2018-12-15T06:25:22.272Z,87.60
2018-12-15T06:27:56.869Z,88.20
2018-12-15T06:30:31.547Z,89.20
2018-12-15T06:33:06.253Z,89.30
2018-12-15T06:35:41.297Z,88.70
2018-12-15T06:38:15.929Z,88.70
2018-12-15T06:40:50.709Z,89.80
2018-12-15T06:43:25.874Z,88.90
2018-12-15T06:46:01.371Z,88.50
2018-12-15T06:48:38.269Z,88.50
2018-12-15T06:51:12.620Z,88.50
2018-12-15T06:53:47.259Z,88.90
2018-12-15T06:56:23.976Z,88.60
2018-12-15T06:58:58.610Z,88.30
2018-12-15T07:01:33.318Z,88.70
2018-12-15T07:04:07.974Z,88.50
2018-12-15T07:06:42.665Z,87.70
2018-12-15T07:09:17.213Z,87.40
2018-12-15T07:11:52.078Z,87.60
2018-12-15T07:14:27.103Z,87.60
2018-12-15T07:17:01.709Z,87.00
2018-12-15T07:19:36.394Z,87.60
2018-12-15T07:22:11.022Z,87.40
2018-12-15T07:24:45.754Z,86.90
2018-12-15T07:27:20.303Z,87.50
2018-12-15T07:29:55.000Z,87.30
2018-12-15T07:32:29.590Z,87.30
2018-12-15T07:35:04.616Z,87.60
2018-12-15T07:37:39.491Z,88.00
2018-12-15T07:40:14.113Z,87.90
2018-12-15T07:42:48.861Z,87.50
2018-12-15T07:45:23.446Z,86.90
2018-12-15T07:47:58.025Z,86.70
2018-12-15T07:50:32.664Z,86.20
2018-12-15T07:53:07.351Z,85.70
2018-12-15T07:55:42.117Z,85.80
2018-12-15T07:58:16.729Z,86.30
2018-12-15T08:00:51.603Z,86.20
2018-12-15T08:03:26.313Z,86.60
2018-12-15T08:06:01.049Z,86.90
2018-12-15T08:08:35.773Z,86.70
2018-12-15T08:11:17.702Z,86.90
2018-12-15T08:13:54.075Z,86.70
2018-12-15T08:16:28.839Z,87.10
2018-12-15T08:19:03.476Z,87.20
2018-12-15T08:21:38.084Z,87.60
2018-12-15T08:24:12.861Z,87.10
2018-12-15T08:26:47.706Z,87.00
2018-12-15T08:29:22.235Z,86.80
2018-12-15T08:31:56.996Z,87.30
2018-12-15T08:34:31.960Z,87.10
2018-12-15T08:37:06.529Z,87.40
2018-12-15T08:39:41.245Z,87.90
2018-12-15T08:42:16.285Z,87.30
2018-12-15T08:44:51.040Z,87.00
2018-12-15T08:47:25.978Z,87.00
2018-12-15T08:50:00.622Z,87.20
2018-12-15T08:52:35.313Z,87.10
2018-12-15T08:55:10.038Z,87.50
2018-12-15T08:57:44.840Z,87.60
2018-12-15T09:00:19.337Z,88.20
2018-12-15T09:02:54.690Z,87.50
2018-12-15T09:05:29.456Z,87.70
2018-12-15T09:08:04.013Z,88.00
2018-12-15T09:10:38.799Z,86.90
2018-12-15T09:13:13.325Z,87.00
2018-12-15T09:15:47.914Z,86.60
2018-12-15T09:18:22.667Z,86.80
2018-12-15T09:20:57.354Z,87.30
2018-12-15T09:23:32.100Z,87.10
2018-12-15T09:26:06.741Z,87.20
2018-12-15T09:28:41.425Z,86.60
2018-12-15T09:31:16.027Z,86.50
2018-12-15T09:33:50.689Z,86.90
2018-12-15T09:36:25.201Z,87.40
2018-12-15T09:38:59.910Z,88.50
2018-12-15T09:41:34.406Z,89.40
2018-12-15T09:44:09.144Z,89.60
2018-12-15T09:46:43.596Z,90.00
2018-12-15T09:49:18.306Z,89.90
2018-12-15T09:51:52.866Z,89.10
2018-12-15T09:54:27.557Z,88.80
2018-12-15T09:57:02.106Z,89.90
2018-12-15T09:59:36.725Z,88.30
2018-12-15T10:02:11.449Z,87.80
2018-12-15T10:04:46.117Z,88.30
2018-12-15T10:07:20.698Z,89.40
2018-12-15T10:09:55.487Z,89.20
2018-12-15T10:12:30.004Z,88.90
2018-12-15T10:15:05.505Z,88.30
2018-12-15T10:17:40.088Z,88.20
2018-12-15T10:20:14.748Z,87.90
2018-12-15T10:22:49.784Z,87.20
2018-12-15T10:25:24.369Z,86.10
2018-12-15T10:27:59.109Z,85.70
2018-12-15T10:30:39.144Z,85.80
2018-12-15T10:33:13.870Z,84.40
2018-12-15T10:35:48.543Z,84.90
2018-12-15T10:38:23.150Z,83.70
2018-12-15T10:40:57.821Z,84.20
2018-12-15T10:43:32.345Z,83.70
2018-12-15T10:46:06.922Z,85.30
2018-12-15T10:48:41.448Z,85.00
2018-12-15T10:51:16.124Z,84.70
2018-12-15T10:53:50.724Z,85.10
2018-12-15T10:56:25.553Z,84.60
2018-12-15T10:59:00.124Z,84.40
2018-12-15T11:01:34.844Z,84.20
2018-12-15T11:04:09.537Z,83.90
2018-12-15T11:06:44.220Z,84.30
2018-12-15T11:09:18.918Z,83.50
2018-12-15T11:11:53.631Z,83.30
2018-12-15T11:14:28.288Z,83.10
2018-12-15T11:17:03.007Z,82.20
2018-12-15T11:19:37.784Z,82.40
2018-12-15T11:22:12.398Z,83.70
2018-12-15T11:24:47.151Z,83.00
2018-12-15T11:27:22.007Z,82.70
2018-12-15T11:29:56.560Z,81.90
2018-12-15T11:32:31.370Z,81.60
2018-12-15T11:35:06.438Z,82.80
2018-12-15T11:37:41.033Z,83.40
2018-12-15T11:40:15.597Z,83.20
2018-12-15T11:42:50.262Z,83.30
2018-12-15T11:45:25.125Z,82.30
2018-12-15T11:48:00.531Z,81.30
2018-12-15T11:50:35.745Z,81.60
2018-12-15T11:53:11.029Z,82.40
2018-12-15T11:55:45.737Z,83.70
2018-12-15T11:58:20.279Z,84.30
2018-12-15T12:00:54.964Z,84.40
2018-12-15T12:03:31.919Z,83.40
2018-12-15T12:06:06.710Z,84.20
2018-12-15T12:08:41.426Z,83.00
2018-12-15T12:11:16.225Z,81.20
2018-12-15T12:13:51.037Z,81.00
2018-12-15T12:16:25.660Z,80.60
2018-12-15T12:19:00.249Z,80.20
2018-12-15T12:21:35.045Z,80.40
2018-12-15T12:24:09.739Z,80.20
2018-12-15T12:26:44.913Z,80.80
2018-12-15T12:29:19.517Z,82.80
2018-12-15T12:31:54.776Z,83.70
2018-12-15T12:34:29.421Z,83.30
2018-12-15T12:37:04.148Z,82.50
2018-12-15T12:39:38.907Z,80.60
2018-12-15T12:42:13.475Z,80.20
2018-12-15T12:44:48.239Z,79.70
2018-12-15T12:47:22.913Z,80.40
2018-12-15T12:49:57.699Z,81.10
2018-12-15T12:52:32.374Z,81.00
2018-12-15T12:55:07.084Z,81.80
2018-12-15T12:57:41.657Z,82.20
2018-12-15T13:00:16.301Z,81.90
2018-12-15T13:02:51.042Z,81.30
2018-12-15T13:05:25.788Z,82.40
2018-12-15T13:08:00.390Z,82.00
2018-12-15T13:10:34.989Z,83.40
2018-12-15T13:13:09.665Z,82.90
2018-12-15T13:15:44.302Z,83.60
2018-12-15T13:18:19.100Z,84.10
2018-12-15T13:20:53.756Z,83.50
2018-12-15T13:23:28.432Z,83.80
2018-12-15T13:26:02.977Z,84.00
2018-12-15T13:28:37.757Z,82.30
2018-12-15T13:31:12.947Z,81.30
2018-12-15T13:33:47.821Z,80.30
2018-12-15T13:36:22.697Z,79.40
2018-12-15T13:38:57.297Z,81.30
2018-12-15T13:41:32.015Z,82.60
2018-12-15T13:44:06.736Z,83.20
2018-12-15T13:46:41.393Z,83.10
2018-12-15T13:49:15.995Z,83.60
2018-12-15T13:51:50.649Z,83.80
2018-12-15T13:54:25.281Z,83.20
2018-12-15T13:56:59.968Z,82.80
2018-12-15T13:59:34.724Z,83.00
2018-12-15T14:02:09.332Z,81.90
2018-12-15T14:04:43.959Z,82.50
2018-12-15T14:07:19.356Z,82.30
2018-12-15T14:09:54.732Z,81.50
2018-12-15T14:12:29.526Z,80.20
2018-12-15T14:15:05.745Z,79.90
2018-12-15T14:17:40.394Z,78.70
2018-12-15T14:20:16.959Z,76.70
2018-12-15T14:22:51.721Z,75.00
2018-12-15T14:25:26.681Z,75.70
2018-12-15T14:28:01.282Z,76.50
2018-12-15T14:30:36.089Z,77.30
2018-12-15T14:33:10.690Z,77.10
2018-12-15T14:35:45.419Z,76.60
2018-12-15T14:38:20.042Z,77.20
2018-12-15T14:40:54.701Z,77.80
2018-12-15T14:43:29.642Z,77.90
2018-12-15T14:46:04.161Z,77.70
2018-12-15T14:48:38.781Z,78.10
2018-12-15T14:51:13.429Z,78.80
2018-12-15T14:53:48.242Z,80.00
2018-12-15T14:56:22.913Z,81.60
2018-12-15T14:58:57.646Z,81.80
2018-12-15T15:01:32.458Z,81.90
2018-12-15T15:04:07.081Z,81.90
2018-12-15T15:06:41.682Z,83.30
2018-12-15T15:09:16.501Z,82.30
2018-12-15T15:11:51.192Z,81.30
2018-12-15T15:14:25.827Z,81.40
2018-12-15T15:17:00.502Z,81.40
2018-12-15T15:19:35.117Z,81.50
2018-12-15T15:22:09.648Z,82.00
2018-12-15T15:24:44.251Z,82.10
2018-12-15T15:27:18.871Z,82.40
2018-12-15T15:29:53.636Z,82.90
2018-12-15T15:32:28.694Z,82.80
2018-12-15T15:35:03.500Z,83.20
2018-12-15T15:37:38.330Z,83.20
2018-12-15T15:40:13.171Z,84.30
2018-12-15T15:42:47.830Z,84.00
2018-12-15T15:45:22.421Z,84.70
2018-12-15T15:47:57.157Z,84.90
2018-12-15T15:50:36.562Z,84.90
2018-12-15T15:53:08.556Z,84.90
2018-12-15T15:55:43.181Z,85.60
2018-12-15T15:58:17.843Z,86.50
2018-12-15T16:00:52.316Z,88.10
2018-12-15T16:03:27.116Z,87.80
2018-12-15T16:06:01.862Z,87.70
2018-12-15T16:08:36.527Z,88.60
2018-12-15T16:11:11.114Z,88.50
2018-12-15T16:13:45.708Z,88.70
2018-12-15T16:16:27.963Z,88.50
2018-12-15T16:19:02.654Z,88.70
2018-12-15T16:21:37.468Z,88.80
2018-12-15T16:24:12.721Z,88.60
2018-12-15T16:26:47.241Z,89.90
2018-12-15T16:29:21.790Z,90.30
2018-12-15T16:31:56.471Z,90.30
2018-12-15T16:34:31.254Z,90.90
2018-12-15T16:37:05.985Z,90.20
2018-12-15T16:39:40.512Z,90.00
2018-12-15T16:42:15.232Z,90.70
2018-12-15T16:44:49.875Z,90.40
2018-12-15T16:47:24.759Z,90.50
2018-12-15T16:49:59.393Z,90.70
2018-12-15T16:52:34.205Z,90.50
2018-12-15T16:55:09.325Z,90.40
2018-12-15T16:57:43.908Z,90.20
2018-12-15T17:00:18.540Z,90.10
2018-12-15T17:02:53.119Z,90.10
2018-12-15T17:05:27.730Z,90.30
2018-12-15T17:08:02.312Z,90.50
2018-12-15T17:10:36.952Z,90.50
2018-12-15T17:13:11.571Z,90.50
2018-12-15T17:15:46.411Z,90.30
2018-12-15T17:18:21.097Z,90.70
2018-12-15T17:20:56.726Z,90.40
2018-12-15T17:23:31.960Z,90.40
2018-12-15T17:26:06.710Z,90.70
2018-12-15T17:28:41.616Z,90.80
2018-12-15T17:31:16.465Z,90.70
2018-12-15T17:33:51.136Z,90.50
2018-12-15T17:36:26.018Z,90.90
2018-12-15T17:39:00.633Z,90.90
2018-12-15T17:41:35.252Z,91.10
2018-12-15T17:44:10.076Z,91.00
2018-12-15T17:46:45.118Z,91.20
2018-12-15T17:49:19.666Z,91.10
2018-12-15T17:51:54.372Z,91.10
2018-12-15T17:54:29.145Z,91.30
2018-12-15T17:57:04.006Z,91.20
2018-12-15T17:59:38.803Z,91.10
2018-12-15T18:02:13.343Z,91.30
2018-12-15T18:04:48.065Z,91.30
2018-12-15T18:07:22.791Z,91.30
2018-12-15T18:09:57.506Z,91.50
2018-12-15T18:12:32.082Z,91.50
2018-12-15T18:15:07.439Z,91.40
2018-12-15T18:17:42.093Z,91.60
2018-12-15T18:20:16.831Z,91.50
2018-12-15T18:22:51.463Z,91.40
2018-12-15T18:25:26.321Z,91.80
2018-12-15T18:28:00.948Z,91.90
2018-12-15T18:30:35.579Z,92.00
2018-12-15T18:33:10.095Z,91.90
2018-12-15T18:35:44.816Z,91.70
2018-12-15T18:38:19.473Z,91.90
2018-12-15T18:40:54.330Z,91.90
2018-12-15T18:43:29.419Z,92.00
2018-12-15T18:46:04.013Z,92.00
2018-12-15T18:48:38.691Z,92.10
2018-12-15T18:51:16.357Z,91.90
2018-12-15T18:53:49.942Z,91.80
2018-12-15T18:56:24.655Z,91.80
2018-12-15T18:58:59.250Z,91.90
2018-12-15T19:01:33.906Z,91.90
2018-12-15T19:04:08.460Z,92.00
2018-12-15T19:06:43.069Z,92.00
2018-12-15T19:09:17.735Z,92.30
2018-12-15T19:11:52.435Z,92.30
2018-12-15T19:14:27.037Z,92.70
2018-12-15T19:17:01.799Z,92.40
2018-12-15T19:19:36.389Z,92.30
2018-12-15T19:22:11.004Z,92.40
2018-12-15T19:24:45.797Z,92.40
2018-12-15T19:27:20.566Z,92.30
2018-12-15T19:29:55.227Z,92.30
2018-12-15T19:32:29.984Z,92.50
2018-12-15T19:35:05.589Z,92.40
2018-12-15T19:37:40.331Z,92.60
2018-12-15T19:40:15.117Z,92.80
2018-12-15T19:42:50.144Z,92.80
2018-12-15T19:45:24.738Z,92.80
2018-12-15T19:47:59.524Z,92.90
2018-12-15T19:50:34.276Z,92.70
2018-12-15T19:53:09.008Z,92.80
2018-12-15T19:55:43.656Z,93.10
2018-12-15T19:58:18.418Z,92.90
2018-12-15T20:00:53.382Z,93.10
2018-12-15T20:03:28.081Z,93.10
2018-12-15T20:06:02.895Z,93.10
2018-12-15T20:08:37.609Z,93.20
2018-12-15T20:11:12.248Z,93.60
2018-12-15T20:13:46.896Z,93.40
2018-12-15T20:16:21.417Z,93.20
2018-12-15T20:18:56.067Z,93.20
2018-12-15T20:21:36.008Z,93.10
2018-12-15T20:24:07.595Z,93.20
2018-12-15T20:26:42.148Z,93.30
2018-12-15T20:29:16.813Z,93.20
2018-12-15T20:31:51.475Z,93.00
2018-12-15T20:34:26.105Z,93.00
2018-12-15T20:37:00.660Z,93.20
2018-12-15T20:39:35.402Z,93.30
2018-12-15T20:42:10.022Z,93.20
2018-12-15T20:44:45.258Z,93.20
2018-12-15T20:47:19.984Z,93.70
2018-12-15T20:49:54.561Z,93.40
2018-12-15T20:52:29.193Z,93.80
2018-12-15T20:55:04.154Z,93.80
2018-12-15T20:57:38.927Z,93.50
2018-12-15T21:00:13.689Z,93.50
2018-12-15T21:02:48.419Z,93.50
2018-12-15T21:05:23.700Z,93.30
2018-12-15T21:07:58.416Z,93.40
2018-12-15T21:10:33.120Z,93.60
2018-12-15T21:13:07.744Z,93.50
2018-12-15T21:15:42.817Z,93.40
2018-12-15T21:18:17.657Z,93.40
2018-12-15T21:20:52.401Z,93.50
2018-12-15T21:23:27.070Z,93.60
2018-12-15T21:26:01.968Z,93.70
2018-12-15T21:28:36.697Z,93.50
2018-12-15T21:31:11.380Z,93.50
2018-12-15T21:33:46.226Z,93.70
2018-12-15T21:36:20.734Z,93.70
2018-12-15T21:38:55.452Z,93.80
2018-12-15T21:41:30.028Z,93.90
2018-12-15T21:44:04.654Z,93.60
2018-12-15T21:46:39.223Z,93.80
2018-12-15T21:49:13.808Z,93.80
2018-12-15T21:51:48.371Z,93.90
2018-12-15T21:54:23.209Z,93.80
2018-12-15T21:56:57.839Z,93.70
2018-12-15T21:59:32.516Z,93.30
2018-12-15T22:02:07.181Z,93.30
2018-12-15T22:04:41.726Z,93.30
2018-12-15T22:07:16.366Z,93.30
2018-12-15T22:09:51.023Z,93.10
2018-12-15T22:12:25.713Z,93.20
2018-12-15T22:15:00.458Z,93.40
2018-12-15T22:17:35.126Z,93.30
2018-12-15T22:20:10.719Z,93.30
2018-12-15T22:22:45.440Z,93.30
2018-12-15T22:25:20.029Z,93.80
2018-12-15T22:27:55.495Z,94.10
2018-12-15T22:30:29.991Z,94.10
2018-12-15T22:33:04.736Z,93.80
2018-12-15T22:35:39.472Z,93.80
2018-12-15T22:38:14.153Z,93.90
2018-12-15T22:40:48.915Z,94.00
2018-12-15T22:43:23.704Z,94.10
2018-12-15T22:45:58.408Z,94.20
2018-12-15T22:48:33.076Z,94.10
2018-12-15T22:51:07.755Z,94.50
2018-12-15T22:53:42.457Z,94.10
2018-12-15T22:56:17.215Z,94.30
2018-12-15T22:58:51.778Z,94.50
2018-12-15T23:01:26.483Z,94.30
2018-12-15T23:04:01.212Z,94.30
2018-12-15T23:06:35.880Z,94.10
2018-12-15T23:09:11.132Z,94.00
2018-12-15T23:11:45.888Z,93.70
2018-12-15T23:14:20.508Z,93.30
2018-12-15T23:16:55.082Z,93.50
2018-12-15T23:19:29.725Z,93.70
2018-12-15T23:22:04.396Z,93.60
2018-12-15T23:24:38.928Z,93.60
2018-12-15T23:27:13.623Z,94.00
2018-12-15T23:29:48.189Z,93.90
2018-12-15T23:32:23.085Z,93.90
2018-12-15T23:34:58.332Z,94.10
2018-12-15T23:37:32.820Z,94.20
2018-12-15T23:40:08.070Z,94.30
2018-12-15T23:42:42.737Z,94.00
2018-12-15T23:45:17.348Z,94.00
2018-12-15T23:47:52.037Z,93.40
2018-12-15T23:50:26.566Z,93.90
2018-12-15T23:53:01.337Z,94.10
2018-12-15T23:55:36.028Z,94.40
2018-12-15T23:58:10.646Z,94.50
